Big Bear Station Historical Data
Daily Summary for April 9, 2019 Units:  English    Metric   Both
Next Day »
Daily Weekly Monthly Yearly Custom
  High: Low: Average:
Temperature: 60.4 °F 30.9 °F 47.6 °F
Dew Point: 38.9 °F 18.6 °F 30.2 °F
Humidity: 82% 26% 54%
Wind Speed: 13.5mph 0.0mph 4.9mph
Wind Gust: -999.0mph - -
Wind- - WSW
Pressure: 23.61 in 23.37 in -
Precipitation: 0.00 in    
Historical Graphs
 
 
Tabular Data for April 9, 2019
Time Temperature Dew Point Pressure Wind Wind Speed Wind Gust Humidity Rainfall Rate (Hourly)
00:05 42.8 °F 36.1 °F 23.61 in Calm   -999.0 mph 77% 0.00 in
00:20 42.4 °F 35.4 °F 23.61 in Calm   -999.0 mph 76% 0.00 in
00:35 42.1 °F 36.4 °F 23.61 in Calm   -999.0 mph 80% 0.00 in
00:50 42.3 °F 36.3 °F 23.61 in Calm   -999.0 mph 79% 0.00 in
01:05 41.5 °F 35.5 °F 23.60 in Calm   -999.0 mph 79% 0.00 in
01:21 42.1 °F 35.7 °F 23.60 in Calm   -999.0 mph 78% 0.00 in
01:36 42.8 °F 34.7 °F 23.60 in Calm   -999.0 mph 73% 0.00 in
01:51 43.0 °F 34.9 °F 23.59 in Calm   -999.0 mph 73% 0.00 in
02:06 45.0 °F 35.8 °F 23.58 in Calm   -999.0 mph 70% 0.00 in
02:21 45.0 °F 36.2 °F 23.58 in Calm   -999.0 mph 71% 0.00 in
02:37 47.1 °F 36.3 °F 23.57 in SW 3.2 mph -999.0 mph 66% 0.00 in
03:07 48.6 °F 34.9 °F 23.56 in Calm   -999.0 mph 59% 0.00 in
03:22 48.6 °F 34.9 °F 23.55 in Calm   -999.0 mph 59% 0.00 in
03:38 48.4 °F 34.3 °F 23.55 in Calm   -999.0 mph 58% 0.00 in
03:53 48.2 °F 35.0 °F 23.54 in SW 1.1 mph -999.0 mph 60% 0.00 in
04:08 49.5 °F 34.0 °F 23.54 in SSE 2.2 mph -999.0 mph 55% 0.00 in
04:23 50.2 °F 34.7 °F 23.54 in NW 2.7 mph -999.0 mph 55% 0.00 in
04:39 50.4 °F 34.8 °F 23.54 in WNW 3.7 mph -999.0 mph 55% 0.00 in
04:54 50.4 °F 32.9 °F 23.53 in NW 1.7 mph -999.0 mph 51% 0.00 in
05:09 51.1 °F 31.0 °F 23.53 in SSW 2.2 mph -999.0 mph 46% 0.00 in
05:25 50.7 °F 31.7 °F 23.53 in NNW 2.7 mph -999.0 mph 48% 0.00 in
05:40 50.7 °F 30.1 °F 23.52 in WNW 6.3 mph -999.0 mph 45% 0.00 in
05:55 51.3 °F 30.1 °F 23.52 in West 5.8 mph -999.0 mph 44% 0.00 in
06:11 51.3 °F 26.5 °F 23.51 in SW 5.3 mph -999.0 mph 38% 0.00 in
06:26 51.3 °F 27.2 °F 23.51 in South 1.1 mph -999.0 mph 39% 0.00 in
06:41 51.3 °F 25.9 °F 23.51 in SSE 4.2 mph -999.0 mph 37% 0.00 in
07:12 50.5 °F 25.8 °F 23.51 in SSE 4.2 mph -999.0 mph 38% 0.00 in
07:27 50.5 °F 23.8 °F 23.51 in ESE 2.7 mph -999.0 mph 35% 0.00 in
07:42 50.7 °F 26.6 °F 23.51 in WNW 3.2 mph -999.0 mph 39% 0.00 in
07:57 50.9 °F 26.8 °F 23.51 in ESE 2.7 mph -999.0 mph 39% 0.00 in
08:13 51.3 °F 27.8 °F 23.51 in West 5.3 mph -999.0 mph 40% 0.00 in
08:28 51.4 °F 29.6 °F 23.51 in NE 7.3 mph -999.0 mph 43% 0.00 in
08:43 52.3 °F 31.0 °F 23.51 in SSE 7.3 mph -999.0 mph 44% 0.00 in
08:58 52.5 °F 31.8 °F 23.51 in North 8.3 mph -999.0 mph 45% 0.00 in
09:14 52.9 °F 32.7 °F 23.51 in ESE 4.2 mph -999.0 mph 46% 0.00 in
09:29 53.2 °F 31.3 °F 23.51 in WNW 4.7 mph -999.0 mph 43% 0.00 in
09:44 53.4 °F 31.5 °F 23.51 in NW 4.7 mph -999.0 mph 43% 0.00 in
10:00 53.8 °F 30.6 °F 23.51 in WNW 5.8 mph -999.0 mph 41% 0.00 in
10:15 54.3 °F 31.1 °F 23.51 in NW 5.8 mph -999.0 mph 41% 0.00 in
10:30 55.4 °F 28.2 °F 23.50 in SE 5.3 mph -999.0 mph 35% 0.00 in
10:46 55.6 °F 30.4 °F 23.51 in NNW 2.7 mph -999.0 mph 38% 0.00 in
11:01 57.0 °F 28.9 °F 23.51 in West 1.7 mph -999.0 mph 34% 0.00 in
11:16 59.2 °F 30.8 °F 23.50 in NNE 5.3 mph -999.0 mph 34% 0.00 in
11:31 59.0 °F 29.2 °F 23.50 in SSW 3.7 mph -999.0 mph 32% 0.00 in
11:47 60.3 °F 27.9 °F 23.49 in NE 2.2 mph -999.0 mph 29% 0.00 in
12:03 60.4 °F 27.1 °F 23.49 in ESE 2.2 mph -999.0 mph 28% 0.00 in
12:18 59.9 °F 26.7 °F 23.49 in NNW 5.3 mph -999.0 mph 28% 0.00 in
12:33 59.9 °F 31.5 °F 23.48 in NNW 4.2 mph -999.0 mph 34% 0.00 in
12:48 59.9 °F 27.5 °F 23.48 in SSE 2.7 mph -999.0 mph 29% 0.00 in
13:04 59.5 °F 30.4 °F 23.47 in NNW 4.2 mph -999.0 mph 33% 0.00 in
13:19 59.2 °F 29.3 °F 23.46 in ESE 5.3 mph -999.0 mph 32% 0.00 in
13:34 58.6 °F 30.3 °F 23.46 in ESE 5.3 mph -999.0 mph 34% 0.00 in
13:49 58.5 °F 31.6 °F 23.45 in ESE 3.2 mph -999.0 mph 36% 0.00 in
14:04 59.0 °F 32.1 °F 23.44 in SW 7.8 mph -999.0 mph 36% 0.00 in
14:20 57.7 °F 34.2 °F 23.43 in SW 2.2 mph -999.0 mph 41% 0.00 in
14:35 56.3 °F 38.9 °F 23.43 in WNW 5.8 mph -999.0 mph 52% 0.00 in
14:50 54.9 °F 36.1 °F 23.43 in SSE 3.2 mph -999.0 mph 49% 0.00 in
15:05 54.3 °F 32.8 °F 23.42 in SSW 5.8 mph -999.0 mph 44% 0.00 in
15:21 55.0 °F 32.9 °F 23.42 in NW 3.2 mph -999.0 mph 43% 0.00 in
15:36 55.0 °F 32.3 °F 23.41 in ENE 2.7 mph -999.0 mph 42% 0.00 in
15:52 53.6 °F 32.8 °F 23.40 in West 3.2 mph -999.0 mph 45% 0.00 in
16:07 54.0 °F 27.6 °F 23.40 in WNW 7.3 mph -999.0 mph 36% 0.00 in
16:22 52.5 °F 18.6 °F 23.39 in South 7.8 mph -999.0 mph 26% 0.00 in
16:38 50.9 °F 24.2 °F 23.39 in NNE 3.7 mph -999.0 mph 35% 0.00 in
16:53 48.2 °F 36.6 °F 23.39 in NW 4.2 mph -999.0 mph 64% 0.00 in
17:08 47.1 °F 36.3 °F 23.39 in Calm   -999.0 mph 66% 0.00 in
17:23 47.1 °F 34.3 °F 23.38 in NNW 4.2 mph -999.0 mph 61% 0.00 in
17:39 44.8 °F 31.8 °F 23.38 in WSW 5.8 mph -999.0 mph 60% 0.00 in
17:55 42.4 °F 30.7 °F 23.37 in NW 8.9 mph -999.0 mph 63% 0.00 in
18:10 41.4 °F 29.7 °F 23.37 in NNW 7.8 mph -999.0 mph 63% 0.00 in
18:26 40.6 °F 29.0 °F 23.37 in NW 6.3 mph -999.0 mph 63% 0.00 in
18:41 39.2 °F 28.8 °F 23.37 in North 9.4 mph -999.0 mph 66% 0.00 in
18:56 38.8 °F 29.1 °F 23.37 in NW 8.9 mph -999.0 mph 68% 0.00 in
19:11 37.8 °F 28.2 °F 23.37 in NW 13.5 mph -999.0 mph 68% 0.00 in
19:27 37.0 °F 27.8 °F 23.37 in NW 11.4 mph -999.0 mph 69% 0.00 in
19:42 36.7 °F 26.8 °F 23.37 in WNW 10.9 mph -999.0 mph 67% 0.00 in
19:57 36.3 °F 26.7 °F 23.38 in NW 6.3 mph -999.0 mph 68% 0.00 in
20:13 35.6 °F 25.4 °F 23.38 in NNW 13.0 mph -999.0 mph 66% 0.00 in
20:44 34.5 °F 23.6 °F 23.39 in NW 13.0 mph -999.0 mph 64% 0.00 in
20:59 34.0 °F 23.8 °F 23.39 in NNW 8.3 mph -999.0 mph 66% 0.00 in
21:14 33.6 °F 24.2 °F 23.39 in WNW 13.0 mph -999.0 mph 68% 0.00 in
21:29 33.4 °F 24.7 °F 23.40 in WNW 11.9 mph -999.0 mph 70% 0.00 in
21:45 32.9 °F 23.8 °F 23.39 in NW 8.3 mph -999.0 mph 69% 0.00 in
22:01 32.9 °F 24.5 °F 23.40 in NNW 4.7 mph -999.0 mph 71% 0.00 in
22:16 32.5 °F 26.1 °F 23.42 in North 9.9 mph -999.0 mph 77% 0.00 in
22:31 32.5 °F 26.4 °F 23.40 in North 9.9 mph -999.0 mph 78% 0.00 in
22:47 32.2 °F 25.5 °F 23.40 in North 11.9 mph -999.0 mph 76% 0.00 in
23:02 32.2 °F 25.8 °F 23.40 in North 8.3 mph -999.0 mph 77% 0.00 in
23:17 31.8 °F 26.3 °F 23.40 in NNW 9.4 mph -999.0 mph 80% 0.00 in
23:33 31.3 °F 25.5 °F 23.40 in North 8.9 mph -999.0 mph 79% 0.00 in
23:48 30.9 °F 26.1 °F 23.40 in NNW 6.8 mph -999.0 mph 82% 0.00 in
Big Bear CA Weather